sensor_id;sensor_type;location;lat;lon;timestamp;P1;durP1;ratioP1;P2;durP2;ratioP2
36817;SDS011;22761;51.542;16.450;2023-08-06T00:01:30;4.30;;;3.80;;
36817;SDS011;22761;51.542;16.450;2023-08-06T00:03:57;4.60;;;3.50;;
36817;SDS011;22761;51.542;16.450;2023-08-06T00:06:25;4.40;;;4.00;;
36817;SDS011;22761;51.542;16.450;2023-08-06T00:08:52;6.10;;;3.90;;
36817;SDS011;22761;51.542;16.450;2023-08-06T00:11:19;4.10;;;3.60;;
36817;SDS011;22761;51.542;16.450;2023-08-06T00:13:46;4.30;;;3.70;;
36817;SDS011;22761;51.542;16.450;2023-08-06T00:16:13;4.90;;;3.10;;
36817;SDS011;22761;51.542;16.450;2023-08-06T00:18:40;4.10;;;3.40;;
36817;SDS011;22761;51.542;16.450;2023-08-06T00:21:07;4.50;;;3.20;;
36817;SDS011;22761;51.542;16.450;2023-08-06T00:23:34;6.10;;;3.80;;
36817;SDS011;22761;51.542;16.450;2023-08-06T00:26:01;3.90;;;3.50;;
36817;SDS011;22761;51.542;16.450;2023-08-06T00:28:28;4.50;;;3.80;;
36817;SDS011;22761;51.542;16.450;2023-08-06T00:30:55;3.60;;;3.20;;
36817;SDS011;22761;51.542;16.450;2023-08-06T00:33:23;3.90;;;3.50;;
36817;SDS011;22761;51.542;16.450;2023-08-06T00:35:51;5.10;;;3.50;;
36817;SDS011;22761;51.542;16.450;2023-08-06T00:38:18;4.50;;;3.80;;
36817;SDS011;22761;51.542;16.450;2023-08-06T00:40:45;5.30;;;3.70;;
36817;SDS011;22761;51.542;16.450;2023-08-06T00:43:12;5.70;;;3.50;;
36817;SDS011;22761;51.542;16.450;2023-08-06T00:45:39;4.60;;;3.60;;
36817;SDS011;22761;51.542;16.450;2023-08-06T00:48:06;4.20;;;3.80;;
36817;SDS011;22761;51.542;16.450;2023-08-06T00:50:33;6.00;;;3.50;;
36817;SDS011;22761;51.542;16.450;2023-08-06T00:53:00;4.00;;;3.50;;
36817;SDS011;22761;51.542;16.450;2023-08-06T00:55:28;4.60;;;3.70;;
36817;SDS011;22761;51.542;16.450;2023-08-06T00:57:55;3.40;;;3.10;;
36817;SDS011;22761;51.542;16.450;2023-08-06T01:00:23;4.30;;;3.90;;
36817;SDS011;22761;51.542;16.450;2023-08-06T01:02:51;4.20;;;2.80;;
36817;SDS011;22761;51.542;16.450;2023-08-06T01:05:20;3.50;;;3.20;;
36817;SDS011;22761;51.542;16.450;2023-08-06T01:08:09;3.50;;;3.10;;
36817;SDS011;22761;51.542;16.450;2023-08-06T01:10:45;3.90;;;3.20;;
36817;SDS011;22761;51.542;16.450;2023-08-06T01:16:15;4.20;;;3.40;;
36817;SDS011;22761;51.542;16.450;2023-08-06T01:18:43;3.90;;;3.10;;
36817;SDS011;22761;51.542;16.450;2023-08-06T01:21:13;3.60;;;3.10;;
36817;SDS011;22761;51.542;16.450;2023-08-06T01:23:40;3.30;;;3.00;;
36817;SDS011;22761;51.542;16.450;2023-08-06T01:26:13;4.00;;;3.20;;
36817;SDS011;22761;51.542;16.450;2023-08-06T01:31:18;3.20;;;2.90;;
36817;SDS011;22761;51.542;16.450;2023-08-06T01:33:49;2.80;;;2.40;;
36817;SDS011;22761;51.542;16.450;2023-08-06T01:36:16;2.90;;;2.50;;
36817;SDS011;22761;51.542;16.450;2023-08-06T01:38:45;2.90;;;2.30;;
36817;SDS011;22761;51.542;16.450;2023-08-06T01:41:12;3.20;;;2.90;;
36817;SDS011;22761;51.542;16.450;2023-08-06T01:43:39;3.60;;;2.80;;
36817;SDS011;22761;51.542;16.450;2023-08-06T01:46:06;3.60;;;2.80;;
36817;SDS011;22761;51.542;16.450;2023-08-06T01:48:33;2.80;;;2.40;;
36817;SDS011;22761;51.542;16.450;2023-08-06T01:51:00;2.40;;;2.20;;
36817;SDS011;22761;51.542;16.450;2023-08-06T01:53:27;2.60;;;2.40;;
36817;SDS011;22761;51.542;16.450;2023-08-06T01:55:54;3.40;;;2.60;;
36817;SDS011;22761;51.542;16.450;2023-08-06T01:58:20;3.30;;;2.40;;
36817;SDS011;22761;51.542;16.450;2023-08-06T02:00:47;4.60;;;2.30;;
36817;SDS011;22761;51.542;16.450;2023-08-06T02:03:14;3.10;;;2.30;;
36817;SDS011;22761;51.542;16.450;2023-08-06T02:05:42;3.00;;;2.50;;
36817;SDS011;22761;51.542;16.450;2023-08-06T02:08:09;2.90;;;2.40;;
36817;SDS011;22761;51.542;16.450;2023-08-06T02:10:36;2.40;;;2.20;;
36817;SDS011;22761;51.542;16.450;2023-08-06T02:13:02;3.00;;;2.20;;
36817;SDS011;22761;51.542;16.450;2023-08-06T02:15:30;4.20;;;2.60;;
36817;SDS011;22761;51.542;16.450;2023-08-06T02:17:57;2.80;;;2.50;;
36817;SDS011;22761;51.542;16.450;2023-08-06T02:20:24;3.60;;;2.30;;
36817;SDS011;22761;51.542;16.450;2023-08-06T02:22:51;2.50;;;2.00;;
36817;SDS011;22761;51.542;16.450;2023-08-06T02:25:18;2.70;;;2.20;;
36817;SDS011;22761;51.542;16.450;2023-08-06T02:27:45;1.90;;;1.70;;
36817;SDS011;22761;51.542;16.450;2023-08-06T02:30:12;2.40;;;1.70;;
36817;SDS011;22761;51.542;16.450;2023-08-06T02:32:39;3.30;;;2.10;;
36817;SDS011;22761;51.542;16.450;2023-08-06T02:35:06;3.30;;;2.00;;
36817;SDS011;22761;51.542;16.450;2023-08-06T02:37:33;3.50;;;2.10;;
36817;SDS011;22761;51.542;16.450;2023-08-06T02:40:01;2.50;;;1.60;;
36817;SDS011;22761;51.542;16.450;2023-08-06T02:42:28;1.30;;;1.20;;
36817;SDS011;22761;51.542;16.450;2023-08-06T02:44:56;2.80;;;1.50;;
36817;SDS011;22761;51.542;16.450;2023-08-06T02:47:23;1.80;;;1.40;;
36817;SDS011;22761;51.542;16.450;2023-08-06T02:49:50;1.70;;;1.30;;
36817;SDS011;22761;51.542;16.450;2023-08-06T02:52:19;2.20;;;1.50;;
36817;SDS011;22761;51.542;16.450;2023-08-06T02:54:46;1.40;;;1.30;;
36817;SDS011;22761;51.542;16.450;2023-08-06T02:57:13;2.10;;;1.30;;
36817;SDS011;22761;51.542;16.450;2023-08-06T02:59:40;1.20;;;1.10;;
36817;SDS011;22761;51.542;16.450;2023-08-06T03:02:12;1.40;;;1.10;;
36817;SDS011;22761;51.542;16.450;2023-08-06T03:04:46;1.30;;;1.20;;
36817;SDS011;22761;51.542;16.450;2023-08-06T03:07:13;1.30;;;1.10;;
36817;SDS011;22761;51.542;16.450;2023-08-06T03:09:48;1.40;;;1.10;;
36817;SDS011;22761;51.542;16.450;2023-08-06T03:12:15;2.10;;;1.30;;
36817;SDS011;22761;51.542;16.450;2023-08-06T03:14:42;1.60;;;1.10;;
36817;SDS011;22761;51.542;16.450;2023-08-06T03:17:10;1.40;;;1.00;;
36817;SDS011;22761;51.542;16.450;2023-08-06T03:19:37;1.60;;;0.80;;
36817;SDS011;22761;51.542;16.450;2023-08-06T03:22:04;1.20;;;1.10;;
36817;SDS011;22761;51.542;16.450;2023-08-06T03:24:33;2.00;;;1.10;;
36817;SDS011;22761;51.542;16.450;2023-08-06T03:27:01;1.60;;;1.20;;
36817;SDS011;22761;51.542;16.450;2023-08-06T03:29:29;4.40;;;1.20;;
36817;SDS011;22761;51.542;16.450;2023-08-06T03:31:58;1.20;;;0.90;;
36817;SDS011;22761;51.542;16.450;2023-08-06T03:34:27;2.00;;;1.20;;
36817;SDS011;22761;51.542;16.450;2023-08-06T03:36:54;0.90;;;0.80;;
36817;SDS011;22761;51.542;16.450;2023-08-06T03:39:21;0.80;;;0.80;;
36817;SDS011;22761;51.542;16.450;2023-08-06T03:41:48;1.10;;;0.80;;
36817;SDS011;22761;51.542;16.450;2023-08-06T03:44:15;2.00;;;0.90;;
36817;SDS011;22761;51.542;16.450;2023-08-06T03:46:42;1.30;;;0.90;;
36817;SDS011;22761;51.542;16.450;2023-08-06T03:49:10;2.30;;;0.60;;
36817;SDS011;22761;51.542;16.450;2023-08-06T03:51:36;2.20;;;0.90;;
36817;SDS011;22761;51.542;16.450;2023-08-06T03:54:04;2.20;;;0.90;;
36817;SDS011;22761;51.542;16.450;2023-08-06T03:56:31;1.20;;;0.60;;
36817;SDS011;22761;51.542;16.450;2023-08-06T03:58:59;1.90;;;0.80;;
36817;SDS011;22761;51.542;16.450;2023-08-06T04:01:26;2.10;;;0.60;;
36817;SDS011;22761;51.542;16.450;2023-08-06T04:03:53;2.00;;;0.60;;
36817;SDS011;22761;51.542;16.450;2023-08-06T04:06:20;1.50;;;0.80;;
36817;SDS011;22761;51.542;16.450;2023-08-06T04:08:47;1.00;;;0.60;;
36817;SDS011;22761;51.542;16.450;2023-08-06T04:11:14;0.80;;;0.50;;
36817;SDS011;22761;51.542;16.450;2023-08-06T04:13:42;0.90;;;0.40;;
36817;SDS011;22761;51.542;16.450;2023-08-06T04:16:10;0.40;;;0.40;;
36817;SDS011;22761;51.542;16.450;2023-08-06T04:18:37;1.20;;;0.60;;
36817;SDS011;22761;51.542;16.450;2023-08-06T04:21:04;1.60;;;0.50;;
36817;SDS011;22761;51.542;16.450;2023-08-06T04:23:31;0.30;;;0.30;;
36817;SDS011;22761;51.542;16.450;2023-08-06T04:26:02;0.90;;;0.40;;
36817;SDS011;22761;51.542;16.450;2023-08-06T04:28:32;0.50;;;0.40;;
36817;SDS011;22761;51.542;16.450;2023-08-06T04:30:59;0.50;;;0.40;;
36817;SDS011;22761;51.542;16.450;2023-08-06T04:33:27;0.50;;;0.40;;
36817;SDS011;22761;51.542;16.450;2023-08-06T04:35:56;0.30;;;0.30;;
36817;SDS011;22761;51.542;16.450;2023-08-06T04:38:24;0.80;;;0.50;;
36817;SDS011;22761;51.542;16.450;2023-08-06T04:40:52;0.40;;;0.30;;
36817;SDS011;22761;51.542;16.450;2023-08-06T04:43:20;0.50;;;0.40;;
36817;SDS011;22761;51.542;16.450;2023-08-06T04:45:47;0.60;;;0.40;;
36817;SDS011;22761;51.542;16.450;2023-08-06T04:48:15;2.00;;;0.80;;
36817;SDS011;22761;51.542;16.450;2023-08-06T04:50:43;0.70;;;0.60;;
36817;SDS011;22761;51.542;16.450;2023-08-06T04:53:11;0.50;;;0.50;;
36817;SDS011;22761;51.542;16.450;2023-08-06T04:55:39;0.50;;;0.40;;
36817;SDS011;22761;51.542;16.450;2023-08-06T04:58:06;1.40;;;0.70;;
36817;SDS011;22761;51.542;16.450;2023-08-06T05:00:33;1.40;;;0.40;;
36817;SDS011;22761;51.542;16.450;2023-08-06T05:03:00;0.50;;;0.50;;
36817;SDS011;22761;51.542;16.450;2023-08-06T05:05:28;0.60;;;0.60;;
36817;SDS011;22761;51.542;16.450;2023-08-06T05:07:56;1.00;;;0.60;;
36817;SDS011;22761;51.542;16.450;2023-08-06T05:10:24;0.60;;;0.50;;
36817;SDS011;22761;51.542;16.450;2023-08-06T05:12:52;0.60;;;0.40;;
36817;SDS011;22761;51.542;16.450;2023-08-06T05:15:20;0.70;;;0.50;;
36817;SDS011;22761;51.542;16.450;2023-08-06T05:17:47;0.50;;;0.50;;
36817;SDS011;22761;51.542;16.450;2023-08-06T05:20:14;1.00;;;0.50;;
36817;SDS011;22761;51.542;16.450;2023-08-06T05:22:41;1.60;;;0.60;;
36817;SDS011;22761;51.542;16.450;2023-08-06T05:25:08;0.60;;;0.60;;
36817;SDS011;22761;51.542;16.450;2023-08-06T05:27:35;0.70;;;0.60;;
36817;SDS011;22761;51.542;16.450;2023-08-06T05:30:02;0.60;;;0.60;;
36817;SDS011;22761;51.542;16.450;2023-08-06T05:32:29;0.70;;;0.60;;
36817;SDS011;22761;51.542;16.450;2023-08-06T05:34:56;1.70;;;0.50;;
36817;SDS011;22761;51.542;16.450;2023-08-06T05:37:23;4.80;;;1.00;;
36817;SDS011;22761;51.542;16.450;2023-08-06T05:39:50;0.50;;;0.50;;
36817;SDS011;22761;51.542;16.450;2023-08-06T05:42:17;0.70;;;0.60;;
36817;SDS011;22761;51.542;16.450;2023-08-06T05:44:44;0.70;;;0.60;;
36817;SDS011;22761;51.542;16.450;2023-08-06T05:47:10;0.70;;;0.70;;
36817;SDS011;22761;51.542;16.450;2023-08-06T05:49:37;0.80;;;0.80;;
36817;SDS011;22761;51.542;16.450;2023-08-06T05:52:05;1.70;;;0.60;;
36817;SDS011;22761;51.542;16.450;2023-08-06T05:54:33;0.80;;;0.60;;
36817;SDS011;22761;51.542;16.450;2023-08-06T05:56:59;0.80;;;0.80;;
36817;SDS011;22761;51.542;16.450;2023-08-06T05:59:26;0.90;;;0.80;;
36817;SDS011;22761;51.542;16.450;2023-08-06T06:01:53;1.60;;;0.80;;
36817;SDS011;22761;51.542;16.450;2023-08-06T06:04:21;1.00;;;0.90;;
36817;SDS011;22761;51.542;16.450;2023-08-06T06:06:48;2.20;;;1.90;;
36817;SDS011;22761;51.542;16.450;2023-08-06T06:09:15;2.40;;;2.20;;
36817;SDS011;22761;51.542;16.450;2023-08-06T06:11:42;3.00;;;2.80;;
36817;SDS011;22761;51.542;16.450;2023-08-06T06:14:08;3.40;;;3.10;;
36817;SDS011;22761;51.542;16.450;2023-08-06T06:16:35;3.10;;;2.90;;
36817;SDS011;22761;51.542;16.450;2023-08-06T06:19:02;2.90;;;2.70;;
36817;SDS011;22761;51.542;16.450;2023-08-06T06:21:29;2.40;;;2.20;;
36817;SDS011;22761;51.542;16.450;2023-08-06T06:23:56;2.70;;;2.50;;
36817;SDS011;22761;51.542;16.450;2023-08-06T06:26:23;2.40;;;2.20;;
36817;SDS011;22761;51.542;16.450;2023-08-06T06:28:50;2.40;;;2.20;;
36817;SDS011;22761;51.542;16.450;2023-08-06T06:31:17;2.50;;;2.30;;
36817;SDS011;22761;51.542;16.450;2023-08-06T06:33:44;2.30;;;2.10;;
36817;SDS011;22761;51.542;16.450;2023-08-06T06:36:11;2.20;;;2.00;;
36817;SDS011;22761;51.542;16.450;2023-08-06T06:38:39;2.40;;;2.20;;
36817;SDS011;22761;51.542;16.450;2023-08-06T06:41:06;2.40;;;2.10;;
36817;SDS011;22761;51.542;16.450;2023-08-06T06:43:33;2.40;;;2.20;;
36817;SDS011;22761;51.542;16.450;2023-08-06T06:46:00;2.20;;;1.90;;
36817;SDS011;22761;51.542;16.450;2023-08-06T06:48:28;2.20;;;2.00;;
36817;SDS011;22761;51.542;16.450;2023-08-06T06:50:56;3.20;;;2.20;;
36817;SDS011;22761;51.542;16.450;2023-08-06T06:53:23;1.80;;;1.70;;
36817;SDS011;22761;51.542;16.450;2023-08-06T06:56:00;1.60;;;1.50;;
36817;SDS011;22761;51.542;16.450;2023-08-06T06:58:28;1.60;;;1.50;;
36817;SDS011;22761;51.542;16.450;2023-08-06T07:00:55;2.10;;;1.50;;
36817;SDS011;22761;51.542;16.450;2023-08-06T07:03:22;1.10;;;1.00;;
36817;SDS011;22761;51.542;16.450;2023-08-06T07:05:49;1.90;;;1.00;;
36817;SDS011;22761;51.542;16.450;2023-08-06T07:08:16;1.20;;;1.10;;
36817;SDS011;22761;51.542;16.450;2023-08-06T07:10:43;2.00;;;1.40;;
36817;SDS011;22761;51.542;16.450;2023-08-06T07:13:10;4.40;;;1.40;;
36817;SDS011;22761;51.542;16.450;2023-08-06T07:15:37;1.20;;;0.80;;
36817;SDS011;22761;51.542;16.450;2023-08-06T07:18:04;1.20;;;1.00;;
36817;SDS011;22761;51.542;16.450;2023-08-06T07:20:31;3.10;;;0.90;;
36817;SDS011;22761;51.542;16.450;2023-08-06T07:23:00;2.10;;;0.90;;
36817;SDS011;22761;51.542;16.450;2023-08-06T07:25:27;0.90;;;0.80;;
36817;SDS011;22761;51.542;16.450;2023-08-06T07:27:54;0.90;;;0.80;;
36817;SDS011;22761;51.542;16.450;2023-08-06T07:30:23;2.20;;;0.70;;
36817;SDS011;22761;51.542;16.450;2023-08-06T07:32:50;0.80;;;0.70;;
36817;SDS011;22761;51.542;16.450;2023-08-06T07:35:17;1.60;;;0.70;;
36817;SDS011;22761;51.542;16.450;2023-08-06T07:37:44;1.00;;;0.90;;
36817;SDS011;22761;51.542;16.450;2023-08-06T07:40:11;1.20;;;0.70;;
36817;SDS011;22761;51.542;16.450;2023-08-06T07:42:38;0.90;;;0.80;;
36817;SDS011;22761;51.542;16.450;2023-08-06T07:45:06;0.60;;;0.60;;
36817;SDS011;22761;51.542;16.450;2023-08-06T07:47:33;1.80;;;0.70;;
36817;SDS011;22761;51.542;16.450;2023-08-06T07:50:00;1.50;;;0.50;;
36817;SDS011;22761;51.542;16.450;2023-08-06T07:52:27;0.70;;;0.70;;
36817;SDS011;22761;51.542;16.450;2023-08-06T07:54:54;1.80;;;0.70;;
36817;SDS011;22761;51.542;16.450;2023-08-06T07:57:21;1.20;;;0.70;;
36817;SDS011;22761;51.542;16.450;2023-08-06T07:59:48;1.00;;;0.70;;
36817;SDS011;22761;51.542;16.450;2023-08-06T08:02:15;0.80;;;0.50;;
36817;SDS011;22761;51.542;16.450;2023-08-06T08:04:42;2.40;;;1.00;;
36817;SDS011;22761;51.542;16.450;2023-08-06T08:07:09;1.10;;;0.60;;
36817;SDS011;22761;51.542;16.450;2023-08-06T08:09:37;0.60;;;0.50;;
36817;SDS011;22761;51.542;16.450;2023-08-06T08:12:04;0.50;;;0.40;;
36817;SDS011;22761;51.542;16.450;2023-08-06T08:14:31;1.20;;;0.40;;
36817;SDS011;22761;51.542;16.450;2023-08-06T08:17:04;0.50;;;0.40;;
36817;SDS011;22761;51.542;16.450;2023-08-06T08:21:59;0.60;;;0.30;;
36817;SDS011;22761;51.542;16.450;2023-08-06T08:24:26;0.40;;;0.40;;
36817;SDS011;22761;51.542;16.450;2023-08-06T08:26:52;0.50;;;0.40;;
36817;SDS011;22761;51.542;16.450;2023-08-06T08:29:20;1.00;;;0.50;;
36817;SDS011;22761;51.542;16.450;2023-08-06T08:31:48;1.00;;;0.40;;
36817;SDS011;22761;51.542;16.450;2023-08-06T08:34:18;1.10;;;0.50;;
36817;SDS011;22761;51.542;16.450;2023-08-06T08:36:46;0.50;;;0.40;;
36817;SDS011;22761;51.542;16.450;2023-08-06T08:39:13;0.50;;;0.50;;
36817;SDS011;22761;51.542;16.450;2023-08-06T08:41:41;2.60;;;0.50;;
36817;SDS011;22761;51.542;16.450;2023-08-06T08:44:09;0.60;;;0.60;;
36817;SDS011;22761;51.542;16.450;2023-08-06T08:46:38;0.80;;;0.50;;
36817;SDS011;22761;51.542;16.450;2023-08-06T08:51:34;0.90;;;0.80;;
36817;SDS011;22761;51.542;16.450;2023-08-06T08:54:04;0.60;;;0.50;;
36817;SDS011;22761;51.542;16.450;2023-08-06T08:56:34;1.60;;;0.50;;
36817;SDS011;22761;51.542;16.450;2023-08-06T08:59:01;1.20;;;0.50;;
36817;SDS011;22761;51.542;16.450;2023-08-06T09:01:29;1.50;;;0.50;;
36817;SDS011;22761;51.542;16.450;2023-08-06T09:03:56;1.80;;;0.70;;
36817;SDS011;22761;51.542;16.450;2023-08-06T09:06:23;0.80;;;0.50;;
36817;SDS011;22761;51.542;16.450;2023-08-06T09:11:28;0.90;;;0.60;;
36817;SDS011;22761;51.542;16.450;2023-08-06T09:16:25;0.50;;;0.50;;
36817;SDS011;22761;51.542;16.450;2023-08-06T09:18:52;0.80;;;0.70;;
36817;SDS011;22761;51.542;16.450;2023-08-06T09:21:19;0.40;;;0.40;;
36817;SDS011;22761;51.542;16.450;2023-08-06T09:23:46;1.90;;;0.40;;
36817;SDS011;22761;51.542;16.450;2023-08-06T09:26:13;0.80;;;0.60;;
36817;SDS011;22761;51.542;16.450;2023-08-06T09:28:43;2.20;;;0.50;;
36817;SDS011;22761;51.542;16.450;2023-08-06T09:31:09;1.90;;;0.40;;
36817;SDS011;22761;51.542;16.450;2023-08-06T09:33:37;0.60;;;0.50;;
36817;SDS011;22761;51.542;16.450;2023-08-06T09:36:11;0.50;;;0.50;;
36817;SDS011;22761;51.542;16.450;2023-08-06T09:38:38;1.90;;;0.60;;
36817;SDS011;22761;51.542;16.450;2023-08-06T09:41:09;1.00;;;0.50;;
36817;SDS011;22761;51.542;16.450;2023-08-06T09:43:42;0.30;;;0.30;;
36817;SDS011;22761;51.542;16.450;2023-08-06T09:46:12;0.70;;;0.50;;
36817;SDS011;22761;51.542;16.450;2023-08-06T09:48:40;0.50;;;0.50;;
36817;SDS011;22761;51.542;16.450;2023-08-06T09:51:08;0.70;;;0.40;;
36817;SDS011;22761;51.542;16.450;2023-08-06T09:53:35;0.70;;;0.50;;
36817;SDS011;22761;51.542;16.450;2023-08-06T09:56:03;1.10;;;0.70;;
36817;SDS011;22761;51.542;16.450;2023-08-06T09:58:31;0.50;;;0.50;;
36817;SDS011;22761;51.542;16.450;2023-08-06T10:01:02;0.50;;;0.50;;
36817;SDS011;22761;51.542;16.450;2023-08-06T10:03:29;0.60;;;0.50;;
36817;SDS011;22761;51.542;16.450;2023-08-06T10:05:58;1.90;;;0.30;;
36817;SDS011;22761;51.542;16.450;2023-08-06T10:08:25;0.40;;;0.40;;
36817;SDS011;22761;51.542;16.450;2023-08-06T10:10:52;0.50;;;0.50;;
36817;SDS011;22761;51.542;16.450;2023-08-06T10:13:21;0.90;;;0.40;;
36817;SDS011;22761;51.542;16.450;2023-08-06T10:15:49;0.40;;;0.40;;
36817;SDS011;22761;51.542;16.450;2023-08-06T10:18:16;0.50;;;0.40;;
36817;SDS011;22761;51.542;16.450;2023-08-06T10:20:47;1.40;;;0.30;;
36817;SDS011;22761;51.542;16.450;2023-08-06T10:23:14;0.90;;;0.40;;
36817;SDS011;22761;51.542;16.450;2023-08-06T10:25:41;1.10;;;0.50;;
36817;SDS011;22761;51.542;16.450;2023-08-06T10:28:09;1.20;;;0.50;;
36817;SDS011;22761;51.542;16.450;2023-08-06T10:30:41;1.00;;;0.60;;
36817;SDS011;22761;51.542;16.450;2023-08-06T10:33:10;0.90;;;0.60;;
36817;SDS011;22761;51.542;16.450;2023-08-06T10:38:08;0.60;;;0.50;;
36817;SDS011;22761;51.542;16.450;2023-08-06T10:40:40;0.90;;;0.40;;
36817;SDS011;22761;51.542;16.450;2023-08-06T10:43:08;0.70;;;0.50;;
36817;SDS011;22761;51.542;16.450;2023-08-06T10:46:01;0.60;;;0.50;;
36817;SDS011;22761;51.542;16.450;2023-08-06T10:48:48;0.50;;;0.40;;
36817;SDS011;22761;51.542;16.450;2023-08-06T10:51:15;1.30;;;0.50;;
36817;SDS011;22761;51.542;16.450;2023-08-06T10:53:46;1.70;;;0.70;;
36817;SDS011;22761;51.542;16.450;2023-08-06T10:56:18;0.60;;;0.60;;
36817;SDS011;22761;51.542;16.450;2023-08-06T10:58:46;2.40;;;0.60;;
36817;SDS011;22761;51.542;16.450;2023-08-06T11:01:14;0.40;;;0.40;;
36817;SDS011;22761;51.542;16.450;2023-08-06T11:03:42;1.10;;;0.60;;
36817;SDS011;22761;51.542;16.450;2023-08-06T11:06:10;3.60;;;0.60;;
36817;SDS011;22761;51.542;16.450;2023-08-06T11:08:39;0.70;;;0.40;;
36817;SDS011;22761;51.542;16.450;2023-08-06T11:11:10;2.00;;;0.60;;
36817;SDS011;22761;51.542;16.450;2023-08-06T11:13:46;0.40;;;0.40;;
36817;SDS011;22761;51.542;16.450;2023-08-06T11:16:15;1.50;;;0.60;;
36817;SDS011;22761;51.542;16.450;2023-08-06T11:18:43;0.90;;;0.50;;
36817;SDS011;22761;51.542;16.450;2023-08-06T11:21:10;1.30;;;0.50;;
36817;SDS011;22761;51.542;16.450;2023-08-06T11:23:38;1.60;;;0.50;;
36817;SDS011;22761;51.542;16.450;2023-08-06T11:26:05;0.90;;;0.70;;
36817;SDS011;22761;51.542;16.450;2023-08-06T11:28:32;0.50;;;0.50;;
36817;SDS011;22761;51.542;16.450;2023-08-06T11:30:59;1.00;;;0.60;;
36817;SDS011;22761;51.542;16.450;2023-08-06T11:33:29;0.50;;;0.50;;
36817;SDS011;22761;51.542;16.450;2023-08-06T11:35:57;0.60;;;0.50;;
36817;SDS011;22761;51.542;16.450;2023-08-06T11:38:26;2.30;;;0.70;;
36817;SDS011;22761;51.542;16.450;2023-08-06T11:40:55;2.10;;;1.70;;
36817;SDS011;22761;51.542;16.450;2023-08-06T11:43:23;0.80;;;0.70;;
36817;SDS011;22761;51.542;16.450;2023-08-06T11:45:50;0.60;;;0.50;;
36817;SDS011;22761;51.542;16.450;2023-08-06T11:48:19;1.10;;;0.50;;
36817;SDS011;22761;51.542;16.450;2023-08-06T11:50:46;0.60;;;0.60;;
36817;SDS011;22761;51.542;16.450;2023-08-06T11:53:13;0.60;;;0.60;;
36817;SDS011;22761;51.542;16.450;2023-08-06T11:55:41;0.90;;;0.70;;
36817;SDS011;22761;51.542;16.450;2023-08-06T11:58:09;1.40;;;0.60;;
36817;SDS011;22761;51.542;16.450;2023-08-06T12:00:38;2.20;;;0.80;;
36817;SDS011;22761;51.542;16.450;2023-08-06T12:03:06;1.00;;;0.70;;
36817;SDS011;22761;51.542;16.450;2023-08-06T12:05:33;1.00;;;0.70;;
36817;SDS011;22761;51.542;16.450;2023-08-06T12:08:01;0.70;;;0.70;;
36817;SDS011;22761;51.542;16.450;2023-08-06T12:10:29;0.80;;;0.60;;
36817;SDS011;22761;51.542;16.450;2023-08-06T12:12:57;1.50;;;0.80;;
36817;SDS011;22761;51.542;16.450;2023-08-06T12:15:24;1.90;;;1.60;;
36817;SDS011;22761;51.542;16.450;2023-08-06T12:17:51;4.30;;;1.90;;
36817;SDS011;22761;51.542;16.450;2023-08-06T12:20:18;3.90;;;2.20;;
36817;SDS011;22761;51.542;16.450;2023-08-06T12:22:45;4.00;;;1.80;;
36817;SDS011;22761;51.542;16.450;2023-08-06T12:25:13;1.20;;;1.10;;
36817;SDS011;22761;51.542;16.450;2023-08-06T12:27:42;2.30;;;1.00;;
36817;SDS011;22761;51.542;16.450;2023-08-06T12:30:10;0.90;;;0.80;;
36817;SDS011;22761;51.542;16.450;2023-08-06T12:32:38;1.70;;;1.20;;
36817;SDS011;22761;51.542;16.450;2023-08-06T12:35:05;2.40;;;1.10;;
36817;SDS011;22761;51.542;16.450;2023-08-06T12:37:34;1.90;;;0.90;;
36817;SDS011;22761;51.542;16.450;2023-08-06T12:40:01;1.20;;;0.70;;
36817;SDS011;22761;51.542;16.450;2023-08-06T12:42:50;1.90;;;1.00;;
36817;SDS011;22761;51.542;16.450;2023-08-06T12:45:17;1.30;;;0.80;;
36817;SDS011;22761;51.542;16.450;2023-08-06T12:47:47;1.70;;;0.90;;
36817;SDS011;22761;51.542;16.450;2023-08-06T12:50:15;1.10;;;0.90;;
36817;SDS011;22761;51.542;16.450;2023-08-06T12:52:43;1.30;;;1.10;;
36817;SDS011;22761;51.542;16.450;2023-08-06T12:55:10;0.80;;;0.80;;
36817;SDS011;22761;51.542;16.450;2023-08-06T12:57:38;2.10;;;0.90;;
36817;SDS011;22761;51.542;16.450;2023-08-06T13:00:24;1.40;;;0.90;;
36817;SDS011;22761;51.542;16.450;2023-08-06T13:02:53;1.60;;;0.70;;
36817;SDS011;22761;51.542;16.450;2023-08-06T13:05:20;1.40;;;0.80;;
36817;SDS011;22761;51.542;16.450;2023-08-06T13:07:47;1.30;;;0.90;;
36817;SDS011;22761;51.542;16.450;2023-08-06T13:10:14;2.20;;;1.40;;
36817;SDS011;22761;51.542;16.450;2023-08-06T13:12:41;1.20;;;0.90;;
36817;SDS011;22761;51.542;16.450;2023-08-06T13:15:08;1.60;;;1.00;;
36817;SDS011;22761;51.542;16.450;2023-08-06T13:17:36;1.00;;;0.80;;
36817;SDS011;22761;51.542;16.450;2023-08-06T13:20:03;2.10;;;1.10;;
36817;SDS011;22761;51.542;16.450;2023-08-06T13:22:31;1.40;;;1.00;;
36817;SDS011;22761;51.542;16.450;2023-08-06T13:24:58;1.80;;;1.20;;
36817;SDS011;22761;51.542;16.450;2023-08-06T13:27:24;1.10;;;1.00;;
36817;SDS011;22761;51.542;16.450;2023-08-06T13:29:51;1.30;;;1.10;;
36817;SDS011;22761;51.542;16.450;2023-08-06T13:32:18;1.30;;;1.10;;
36817;SDS011;22761;51.542;16.450;2023-08-06T13:34:45;2.70;;;2.20;;
36817;SDS011;22761;51.542;16.450;2023-08-06T13:37:12;2.70;;;2.30;;
36817;SDS011;22761;51.542;16.450;2023-08-06T13:39:39;2.80;;;2.30;;
36817;SDS011;22761;51.542;16.450;2023-08-06T13:42:06;3.60;;;2.90;;
36817;SDS011;22761;51.542;16.450;2023-08-06T13:44:33;3.50;;;2.00;;
36817;SDS011;22761;51.542;16.450;2023-08-06T13:47:02;2.00;;;1.70;;
36817;SDS011;22761;51.542;16.450;2023-08-06T13:49:29;2.90;;;1.20;;
36817;SDS011;22761;51.542;16.450;2023-08-06T13:51:56;1.90;;;1.80;;
36817;SDS011;22761;51.542;16.450;2023-08-06T13:54:38;1.60;;;1.40;;
36817;SDS011;22761;51.542;16.450;2023-08-06T13:57:04;1.90;;;1.30;;
36817;SDS011;22761;51.542;16.450;2023-08-06T13:59:31;1.60;;;1.30;;
36817;SDS011;22761;51.542;16.450;2023-08-06T14:01:58;1.40;;;1.20;;
36817;SDS011;22761;51.542;16.450;2023-08-06T14:04:26;2.00;;;1.30;;
36817;SDS011;22761;51.542;16.450;2023-08-06T14:06:53;2.40;;;2.20;;
36817;SDS011;22761;51.542;16.450;2023-08-06T14:09:21;2.80;;;1.20;;
36817;SDS011;22761;51.542;16.450;2023-08-06T14:11:48;1.40;;;1.20;;
36817;SDS011;22761;51.542;16.450;2023-08-06T14:14:15;1.40;;;1.10;;
36817;SDS011;22761;51.542;16.450;2023-08-06T14:16:42;1.80;;;1.20;;
36817;SDS011;22761;51.542;16.450;2023-08-06T14:19:09;1.10;;;1.00;;
36817;SDS011;22761;51.542;16.450;2023-08-06T14:21:36;2.30;;;1.90;;
36817;SDS011;22761;51.542;16.450;2023-08-06T14:24:03;1.50;;;1.30;;
36817;SDS011;22761;51.542;16.450;2023-08-06T14:26:30;2.90;;;1.90;;
36817;SDS011;22761;51.542;16.450;2023-08-06T14:28:57;1.30;;;1.10;;
36817;SDS011;22761;51.542;16.450;2023-08-06T14:31:24;2.20;;;1.00;;
36817;SDS011;22761;51.542;16.450;2023-08-06T14:33:50;1.60;;;1.00;;
36817;SDS011;22761;51.542;16.450;2023-08-06T14:36:18;2.00;;;1.40;;
36817;SDS011;22761;51.542;16.450;2023-08-06T14:38:45;2.70;;;1.70;;
36817;SDS011;22761;51.542;16.450;2023-08-06T14:41:26;1.90;;;1.30;;
36817;SDS011;22761;51.542;16.450;2023-08-06T14:43:53;1.90;;;1.20;;
36817;SDS011;22761;51.542;16.450;2023-08-06T14:46:20;1.40;;;1.30;;
36817;SDS011;22761;51.542;16.450;2023-08-06T14:48:48;1.20;;;1.10;;
36817;SDS011;22761;51.542;16.450;2023-08-06T14:51:15;1.50;;;1.40;;
36817;SDS011;22761;51.542;16.450;2023-08-06T14:53:41;1.50;;;1.30;;
36817;SDS011;22761;51.542;16.450;2023-08-06T14:56:08;1.40;;;1.30;;